createdAt,value
2023-05-16T00:00:17.613Z,57.64
2023-05-16T00:01:17.644Z,54.84
2023-05-16T00:02:17.725Z,52.31
2023-05-16T00:03:17.782Z,50.72
2023-05-16T00:04:17.842Z,54.77
2023-05-16T00:05:17.849Z,50.86
2023-05-16T00:06:17.856Z,51.70
2023-05-16T00:07:17.903Z,51.22
2023-05-16T00:08:17.945Z,51.47
2023-05-16T00:09:17.983Z,53.32
2023-05-16T00:10:18.025Z,54.12
2023-05-16T00:11:18.059Z,56.16
2023-05-16T00:12:18.153Z,56.80
2023-05-16T00:13:18.153Z,57.79
2023-05-16T00:14:18.221Z,59.29
2023-05-16T00:15:18.242Z,60.73
2023-05-16T00:16:18.311Z,61.40
2023-05-16T00:17:18.348Z,62.27
2023-05-16T00:18:18.364Z,60.48
2023-05-16T00:19:18.448Z,63.96
2023-05-16T00:20:18.456Z,63.49
2023-05-16T00:21:18.535Z,62.79
2023-05-16T00:22:18.565Z,63.93
2023-05-16T00:23:18.579Z,61.55
2023-05-16T00:24:18.650Z,59.97
2023-05-16T00:25:18.711Z,58.63
2023-05-16T00:26:18.759Z,59.69
2023-05-16T00:27:18.792Z,60.88
2023-05-16T00:28:18.828Z,64.29
2023-05-16T00:29:18.888Z,61.16
2023-05-16T00:30:18.957Z,62.29
2023-05-16T00:31:18.977Z,61.91
2023-05-16T00:32:19.197Z,62.51
2023-05-16T00:33:19.081Z,62.29
2023-05-16T00:34:19.111Z,63.75
2023-05-16T00:35:19.134Z,64.12
2023-05-16T00:36:20.125Z,63.34
2023-05-16T00:37:19.273Z,62.96
2023-05-16T00:38:19.310Z,63.04
2023-05-16T00:39:19.395Z,63.20
2023-05-16T00:40:19.429Z,63.78
2023-05-16T00:41:19.461Z,63.36
2023-05-16T00:42:19.497Z,63.62
2023-05-16T00:43:19.547Z,65.98
2023-05-16T00:44:19.633Z,67.40
2023-05-16T00:45:19.654Z,69.76
2023-05-16T00:46:19.734Z,66.90
2023-05-16T00:47:19.746Z,69.33
2023-05-16T00:48:19.787Z,74.65
2023-05-16T00:49:19.858Z,73.84
2023-05-16T00:50:19.904Z,75.14
2023-05-16T00:51:19.939Z,72.02
2023-05-16T00:52:20.038Z,74.73
2023-05-16T00:53:20.118Z,74.36
2023-05-16T00:54:20.104Z,74.46
2023-05-16T00:55:20.175Z,76.22
2023-05-16T00:56:20.215Z,74.88
2023-05-16T00:57:47.721Z,50.00
2023-05-16T00:58:47.707Z,50.00
2023-05-16T00:59:47.762Z,50.00
2023-05-16T01:00:48.688Z,50.00
2023-05-16T01:01:47.713Z,50.00
2023-05-16T01:02:47.777Z,50.67
2023-05-16T01:03:47.828Z,50.00
2023-05-16T01:04:47.687Z,54.04
2023-05-16T01:05:47.678Z,55.15
2023-05-16T01:06:47.675Z,58.33
2023-05-16T01:07:47.622Z,57.63
2023-05-16T01:08:47.671Z,56.53
2023-05-16T01:09:47.650Z,57.93
2023-05-16T01:10:47.653Z,57.25
2023-05-16T01:11:47.633Z,59.54
2023-05-16T01:12:47.625Z,59.04
2023-05-16T01:13:49.472Z,59.67
2023-05-16T01:14:47.610Z,59.67
2023-05-16T01:15:47.596Z,58.70
2023-05-16T01:16:47.576Z,64.74
2023-05-16T01:17:47.639Z,61.89
2023-05-16T01:18:47.597Z,60.56
2023-05-16T01:19:47.580Z,61.73
2023-05-16T01:20:47.567Z,62.20
2023-05-16T01:21:47.534Z,61.54
2023-05-16T01:22:47.604Z,60.23
2023-05-16T01:23:47.640Z,59.15
2023-05-16T01:24:47.715Z,59.84
2023-05-16T01:25:47.771Z,59.56
2023-05-16T01:26:47.856Z,57.35
2023-05-16T01:27:47.891Z,59.03
2023-05-16T01:28:47.926Z,59.71
2023-05-16T01:29:47.976Z,57.79
2023-05-16T01:30:48.067Z,57.38
2023-05-16T01:31:48.200Z,58.14
2023-05-16T01:32:48.218Z,58.08
2023-05-16T01:33:48.242Z,59.22
2023-05-16T01:34:48.296Z,61.14
2023-05-16T01:35:48.322Z,57.70
2023-05-16T01:36:48.406Z,61.82
2023-05-16T01:37:48.454Z,61.81
2023-05-16T01:38:48.542Z,61.18
2023-05-16T01:39:48.613Z,63.40
2023-05-16T01:40:48.661Z,63.14
2023-05-16T01:41:48.724Z,63.29
2023-05-16T01:42:48.746Z,65.57
2023-05-16T01:43:48.808Z,63.25
2023-05-16T01:44:48.893Z,63.53
2023-05-16T01:45:48.959Z,65.25
2023-05-16T01:46:49.027Z,66.24
2023-05-16T01:47:49.091Z,64.85
2023-05-16T01:48:49.128Z,64.17
2023-05-16T01:49:49.196Z,65.96
2023-05-16T01:50:49.234Z,66.53
2023-05-16T01:51:49.286Z,66.78
2023-05-16T01:52:49.364Z,66.26
2023-05-16T01:53:49.392Z,65.79
2023-05-16T01:54:49.469Z,68.18
2023-05-16T01:55:49.553Z,69.36
2023-05-16T01:56:49.557Z,69.52
2023-05-16T01:57:49.640Z,69.56
2023-05-16T01:58:49.668Z,67.54
2023-05-16T01:59:49.740Z,68.53
2023-05-16T02:00:49.886Z,68.69
2023-05-16T02:01:49.873Z,69.96
2023-05-16T02:02:50.019Z,68.79
2023-05-16T02:03:50.040Z,69.90
2023-05-16T02:04:50.010Z,69.63
2023-05-16T02:05:50.096Z,69.69
2023-05-16T02:06:50.126Z,69.53
2023-05-16T02:07:50.202Z,69.20
2023-05-16T02:08:50.282Z,70.43
2023-05-16T02:09:50.315Z,70.82
2023-05-16T02:10:50.403Z,70.04
2023-05-16T02:11:50.428Z,71.44
2023-05-16T02:12:50.515Z,72.44
2023-05-16T02:13:50.565Z,72.14
2023-05-16T02:14:50.636Z,74.46
2023-05-16T02:15:50.740Z,72.88
2023-05-16T02:16:50.776Z,74.16
2023-05-16T02:17:50.839Z,72.08
2023-05-16T02:18:50.945Z,74.29
2023-05-16T02:19:50.919Z,74.32
2023-05-16T02:20:51.017Z,74.68
2023-05-16T02:21:51.062Z,73.48
2023-05-16T02:22:51.151Z,76.79
2023-05-16T02:23:51.192Z,76.26
2023-05-16T02:24:51.246Z,75.79
2023-05-16T02:25:51.327Z,76.51
2023-05-16T02:26:51.392Z,77.59
2023-05-16T02:27:51.418Z,75.41
2023-05-16T02:28:51.492Z,75.49
2023-05-16T02:29:51.510Z,73.89
2023-05-16T02:30:51.630Z,75.61
2023-05-16T02:31:51.665Z,75.06
2023-05-16T02:32:51.720Z,77.14
2023-05-16T02:33:51.748Z,74.56
2023-05-16T02:34:51.783Z,75.33
2023-05-16T02:35:51.870Z,75.60
2023-05-16T02:36:51.906Z,77.13
2023-05-16T02:37:52.008Z,75.83
2023-05-16T02:38:52.062Z,77.24
2023-05-16T02:39:52.121Z,77.89
2023-05-16T02:40:52.353Z,79.54
2023-05-16T02:41:52.208Z,78.54
2023-05-16T02:42:52.308Z,78.91
2023-05-16T02:43:52.313Z,78.52
2023-05-16T02:44:52.416Z,80.01
2023-05-16T02:45:52.501Z,79.54
2023-05-16T02:46:52.595Z,83.55
2023-05-16T02:47:52.594Z,80.94
2023-05-16T02:48:52.637Z,81.13
2023-05-16T02:49:52.628Z,80.70
2023-05-16T02:50:52.733Z,84.10
2023-05-16T02:51:52.752Z,82.84
2023-05-16T02:52:52.790Z,84.39
2023-05-16T02:53:52.876Z,87.28
2023-05-16T02:55:52.862Z,89.67
2023-05-16T02:56:52.874Z,90.64
2023-05-16T02:57:52.875Z,91.07
2023-05-16T02:58:52.828Z,92.07
2023-05-16T02:59:52.869Z,91.75
2023-05-16T03:00:52.849Z,94.03
2023-05-16T03:01:52.897Z,91.28
2023-05-16T03:02:52.910Z,94.51
2023-05-16T03:03:52.927Z,94.67
2023-05-16T03:04:52.785Z,96.73
2023-05-16T03:05:52.807Z,95.90
2023-05-16T03:06:52.783Z,95.37
2023-05-16T03:07:52.804Z,94.45
2023-05-16T03:08:52.793Z,95.13
2023-05-16T03:09:52.780Z,98.22
2023-05-16T03:10:52.773Z,99.76
2023-05-16T03:11:52.746Z,98.04
2023-05-16T03:12:52.781Z,99.93
2023-05-16T03:13:52.748Z,99.13
2023-05-16T03:14:52.780Z,98.06
2023-05-16T03:15:52.777Z,101.09
2023-05-16T03:16:52.720Z,99.66
2023-05-16T03:17:52.751Z,98.97
2023-05-16T03:18:52.770Z,100.43
2023-05-16T03:19:52.716Z,100.27
2023-05-16T03:20:52.712Z,100.33
2023-05-16T03:21:52.716Z,100.81
2023-05-16T03:22:52.705Z,101.27
2023-05-16T03:23:52.666Z,99.53
2023-05-16T03:24:52.667Z,102.99
2023-05-16T03:25:52.662Z,103.93
2023-05-16T03:26:52.677Z,102.82
2023-05-16T03:27:52.662Z,100.80
2023-05-16T03:28:52.642Z,99.10
2023-05-16T03:29:52.636Z,100.68
2023-05-16T03:30:52.684Z,101.54
2023-05-16T03:31:52.660Z,101.20
2023-05-16T03:32:52.649Z,101.58
2023-05-16T03:33:52.606Z,100.81
2023-05-16T03:34:52.608Z,102.86
2023-05-16T03:35:52.613Z,102.98
2023-05-16T03:36:52.601Z,105.51
2023-05-16T03:37:52.592Z,103.81
2023-05-16T03:38:52.559Z,105.58
2023-05-16T03:39:52.583Z,105.67
2023-05-16T03:40:52.581Z,105.53
2023-05-16T03:41:52.563Z,105.10
2023-05-16T03:42:52.558Z,107.57
2023-05-16T03:43:52.570Z,105.12
2023-05-16T03:44:52.531Z,109.72
2023-05-16T03:45:52.577Z,108.52
2023-05-16T03:46:52.524Z,111.51
2023-05-16T03:47:52.513Z,110.61
2023-05-16T03:48:52.502Z,110.51
2023-05-16T03:49:52.500Z,109.58
2023-05-16T03:50:52.544Z,108.61
2023-05-16T03:51:52.636Z,110.85
2023-05-16T03:52:52.661Z,114.15
2023-05-16T03:53:52.688Z,112.76
2023-05-16T03:54:52.695Z,114.42
2023-05-16T03:55:52.744Z,112.45
2023-05-16T03:56:52.772Z,114.48
2023-05-16T03:57:52.775Z,112.48
2023-05-16T03:58:52.781Z,113.82
2023-05-16T03:59:52.787Z,115.13
2023-05-16T04:00:52.797Z,115.01
2023-05-16T04:01:52.818Z,112.69
2023-05-16T04:02:52.877Z,114.36
2023-05-16T04:03:52.777Z,112.69
2023-05-16T04:04:52.782Z,112.92
2023-05-16T04:05:52.833Z,112.50
2023-05-16T04:06:52.777Z,111.29
2023-05-16T04:07:52.792Z,112.92
2023-05-16T04:08:52.788Z,112.90
2023-05-16T04:09:52.810Z,113.16
2023-05-16T04:10:52.789Z,111.67
2023-05-16T04:11:52.792Z,111.40
2023-05-16T04:12:52.767Z,113.97
2023-05-16T04:13:52.804Z,111.81
2023-05-16T04:14:52.802Z,111.06
2023-05-16T04:15:52.756Z,110.73
2023-05-16T04:16:52.805Z,111.79
2023-05-16T04:17:52.858Z,110.20
2023-05-16T04:18:52.779Z,113.00
2023-05-16T04:19:52.793Z,113.56
2023-05-16T04:20:52.793Z,113.22
2023-05-16T04:21:52.764Z,113.03
2023-05-16T04:22:52.772Z,112.44
2023-05-16T04:23:52.767Z,114.44
2023-05-16T04:24:52.778Z,112.67
2023-05-16T04:25:52.788Z,110.97
2023-05-16T04:26:52.771Z,111.48
2023-05-16T04:27:52.784Z,110.61
2023-05-16T04:28:52.818Z,110.40
2023-05-16T04:29:52.755Z,112.21
2023-05-16T04:30:52.789Z,111.38
2023-05-16T04:31:52.789Z,111.56
2023-05-16T04:32:52.913Z,109.56
2023-05-16T04:33:52.807Z,112.61
2023-05-16T04:34:52.803Z,110.75
2023-05-16T04:35:52.826Z,111.25
2023-05-16T04:36:52.841Z,109.83
2023-05-16T04:37:52.834Z,109.77
2023-05-16T04:38:52.860Z,109.74
2023-05-16T04:39:52.852Z,112.38
2023-05-16T04:40:52.861Z,111.83
2023-05-16T04:41:52.905Z,113.76
2023-05-16T04:42:52.886Z,113.45
2023-05-16T04:43:52.902Z,111.84
2023-05-16T04:44:52.845Z,112.42
2023-05-16T04:45:52.948Z,113.22
2023-05-16T04:46:53.096Z,114.66
2023-05-16T04:47:52.950Z,115.46
2023-05-16T04:48:52.870Z,114.57
2023-05-16T04:49:52.896Z,115.77
2023-05-16T04:50:52.918Z,116.35
2023-05-16T04:51:52.857Z,117.18
2023-05-16T04:52:54.087Z,116.58
2023-05-16T04:53:52.856Z,115.33
2023-05-16T04:54:52.862Z,114.21
2023-05-16T04:55:52.851Z,112.40
2023-05-16T04:56:52.823Z,111.88
2023-05-16T04:57:52.836Z,109.82
2023-05-16T04:58:52.869Z,111.69
2023-05-16T04:59:52.847Z,110.34
2023-05-16T05:00:52.830Z,109.61
2023-05-16T05:01:52.850Z,110.58
2023-05-16T05:02:52.891Z,110.09
2023-05-16T05:03:52.808Z,111.39
2023-05-16T05:04:52.841Z,108.86
2023-05-16T05:05:52.817Z,110.16
2023-05-16T05:06:52.793Z,110.84
2023-05-16T05:07:52.771Z,111.22
2023-05-16T05:08:52.774Z,108.90
2023-05-16T05:09:52.753Z,110.09
2023-05-16T05:10:52.794Z,107.53
2023-05-16T05:11:52.717Z,107.86
2023-05-16T05:12:52.753Z,109.19
2023-05-16T05:13:53.108Z,108.37
2023-05-16T05:14:52.730Z,110.70
2023-05-16T05:15:52.727Z,109.10
2023-05-16T05:16:52.717Z,108.77
2023-05-16T05:17:52.861Z,106.02
2023-05-16T05:18:52.788Z,107.09
2023-05-16T05:19:52.694Z,108.11
2023-05-16T05:20:52.679Z,109.33
2023-05-16T05:21:52.684Z,108.64
2023-05-16T05:22:52.668Z,109.09
2023-05-16T05:23:52.661Z,107.51
2023-05-16T05:24:52.652Z,110.76
2023-05-16T05:25:52.642Z,109.14
2023-05-16T05:26:52.628Z,112.05
2023-05-16T05:27:52.604Z,113.06
2023-05-16T05:29:04.669Z,113.94
2023-05-16T05:29:53.621Z,114.14
2023-05-16T05:30:52.613Z,114.31
2023-05-16T05:31:52.633Z,115.15
2023-05-16T05:32:52.724Z,116.13
2023-05-16T05:33:52.600Z,118.96
2023-05-16T05:34:52.612Z,120.51
2023-05-16T05:35:52.595Z,121.76
2023-05-16T05:36:52.574Z,124.59
2023-05-16T05:37:52.557Z,125.57
2023-05-16T05:38:52.617Z,125.17
2023-05-16T05:39:52.665Z,124.18
2023-05-16T05:40:52.743Z,127.33
2023-05-16T05:41:52.810Z,128.91
2023-05-16T05:42:52.837Z,141.75
2023-05-16T05:43:52.906Z,146.18
2023-05-16T05:44:52.924Z,144.33
2023-05-16T05:45:52.992Z,146.40
2023-05-16T05:46:53.000Z,152.38
2023-05-16T05:47:53.080Z,156.29
2023-05-16T05:48:53.035Z,162.90
2023-05-16T05:49:53.007Z,158.38
2023-05-16T05:50:53.049Z,166.19
2023-05-16T05:51:53.025Z,178.49
2023-05-16T05:52:53.007Z,192.90
2023-05-16T05:53:53.005Z,188.17
2023-05-16T05:54:53.014Z,195.66
2023-05-16T05:55:53.028Z,201.46
2023-05-16T05:56:53.012Z,199.58
2023-05-16T05:57:53.080Z,197.14
2023-05-16T05:58:53.094Z,199.94
2023-05-16T05:59:53.038Z,198.90
2023-05-16T06:00:53.035Z,196.93
2023-05-16T06:01:53.257Z,195.78
2023-05-16T06:02:53.373Z,195.05
2023-05-16T06:03:53.039Z,197.50
2023-05-16T06:04:53.058Z,199.36
2023-05-16T06:05:53.117Z,199.08
2023-05-16T06:06:53.117Z,200.00
2023-05-16T06:07:53.164Z,199.92
2023-05-16T06:08:53.188Z,200.00
2023-05-16T06:09:53.254Z,199.48
2023-05-16T06:10:53.313Z,200.00
2023-05-16T06:11:53.380Z,199.75
2023-05-16T06:12:53.444Z,199.93
2023-05-16T06:13:53.466Z,199.76
2023-05-16T06:14:53.530Z,199.45
2023-05-16T06:15:53.578Z,199.60
2023-05-16T06:16:53.700Z,198.67
2023-05-16T06:17:53.763Z,199.83
2023-05-16T06:18:53.832Z,199.90
2023-05-16T06:19:53.834Z,198.99
2023-05-16T06:20:53.846Z,199.30
2023-05-16T06:21:53.896Z,197.62
2023-05-16T06:22:53.950Z,196.79
2023-05-16T06:23:54.004Z,198.16
2023-05-16T06:24:54.055Z,200.00
2023-05-16T06:25:54.100Z,198.19
2023-05-16T06:26:54.141Z,198.78
2023-05-16T06:27:54.196Z,199.18
2023-05-16T06:28:54.200Z,196.04
2023-05-16T06:29:54.258Z,196.88
2023-05-16T06:30:54.382Z,198.76
2023-05-16T06:31:54.489Z,198.46
2023-05-16T06:32:54.411Z,192.47
2023-05-16T06:33:54.434Z,200.00
2023-05-16T06:34:54.441Z,200.00
2023-05-16T06:35:54.478Z,199.81
2023-05-16T06:36:54.507Z,199.05
2023-05-16T06:37:54.550Z,197.20
2023-05-16T06:38:54.566Z,198.42
2023-05-16T06:39:54.588Z,198.73
2023-05-16T06:40:54.632Z,197.84
2023-05-16T06:41:56.579Z,196.94
2023-05-16T06:42:54.769Z,196.55
2023-05-16T06:43:54.738Z,195.48
2023-05-16T06:44:54.726Z,199.40
2023-05-16T06:45:54.736Z,199.12
2023-05-16T06:46:54.833Z,197.71
2023-05-16T06:47:57.272Z,194.52
2023-05-16T06:48:54.786Z,198.96
2023-05-16T06:49:54.814Z,190.77
2023-05-16T06:50:54.764Z,186.65
2023-05-16T06:51:54.789Z,189.72
2023-05-16T06:52:54.756Z,184.71
2023-05-16T06:53:54.763Z,185.12
2023-05-16T06:54:54.752Z,187.26
2023-05-16T06:55:54.796Z,186.69
2023-05-16T06:56:54.758Z,185.76
2023-05-16T06:57:54.739Z,186.02
2023-05-16T06:58:54.730Z,186.17
2023-05-16T06:59:54.684Z,184.68
2023-05-16T07:00:54.729Z,185.65
2023-05-16T07:01:54.939Z,187.41
2023-05-16T07:02:54.758Z,186.65
2023-05-16T07:03:54.816Z,186.13
2023-05-16T07:04:54.642Z,186.71
2023-05-16T07:05:54.685Z,186.41
2023-05-16T07:06:54.627Z,188.10
2023-05-16T07:07:54.646Z,188.70
2023-05-16T07:08:54.655Z,189.36
2023-05-16T07:09:54.639Z,188.76
2023-05-16T07:10:54.626Z,190.86
2023-05-16T07:11:54.628Z,190.88
2023-05-16T07:12:54.621Z,190.84
2023-05-16T07:13:54.629Z,190.33
2023-05-16T07:14:54.660Z,190.90
2023-05-16T07:15:54.604Z,193.12
2023-05-16T07:16:54.625Z,191.33
2023-05-16T07:17:54.652Z,193.40
2023-05-16T07:18:54.584Z,192.42
2023-05-16T07:19:54.572Z,193.73
2023-05-16T07:20:54.571Z,192.76
2023-05-16T07:21:54.570Z,193.20
2023-05-16T07:22:54.527Z,194.39
2023-05-16T07:23:54.518Z,194.51
2023-05-16T07:24:56.094Z,194.40
2023-05-16T07:25:54.550Z,194.24
2023-05-16T07:26:54.540Z,195.14
2023-05-16T07:27:54.547Z,194.41
2023-05-16T07:28:54.530Z,193.81
2023-05-16T07:29:54.511Z,194.99
2023-05-16T07:30:54.522Z,194.08
2023-05-16T07:31:54.528Z,194.38
2023-05-16T07:32:54.530Z,194.94
2023-05-16T07:33:54.499Z,193.74
2023-05-16T07:34:54.480Z,195.28
2023-05-16T07:36:07.816Z,194.19
2023-05-16T07:36:55.467Z,194.36
2023-05-16T07:37:54.466Z,194.31
2023-05-16T07:38:54.459Z,195.19
2023-05-16T07:39:54.451Z,195.68
2023-05-16T07:40:54.430Z,196.07
2023-05-16T07:41:54.446Z,192.54
2023-05-16T07:42:54.426Z,193.50
2023-05-16T07:43:54.401Z,194.38
2023-05-16T07:44:54.423Z,195.09
2023-05-16T07:45:54.450Z,194.97
2023-05-16T07:46:54.436Z,193.95
2023-05-16T07:47:54.497Z,195.20
2023-05-16T07:48:54.520Z,196.60
2023-05-16T07:49:54.579Z,197.29
2023-05-16T07:50:55.827Z,194.31
2023-05-16T07:51:54.691Z,195.07
2023-05-16T07:52:54.781Z,193.93
2023-05-16T07:53:54.801Z,195.27
2023-05-16T07:54:54.881Z,194.87
2023-05-16T07:55:54.926Z,195.48
2023-05-16T07:56:54.992Z,195.29
2023-05-16T07:57:55.117Z,198.11
2023-05-16T07:58:55.163Z,197.80
2023-05-16T07:59:55.176Z,199.33
2023-05-16T08:00:55.279Z,199.92
2023-05-16T08:01:55.283Z,198.80
2023-05-16T08:02:55.379Z,197.35
2023-05-16T08:03:55.413Z,198.45
2023-05-16T08:04:55.438Z,198.41
2023-05-16T08:05:55.551Z,199.23
2023-05-16T08:06:55.540Z,199.48
2023-05-16T08:07:55.633Z,199.53
2023-05-16T08:08:55.666Z,199.25
2023-05-16T08:09:55.713Z,198.64
2023-05-16T08:10:55.805Z,198.50
2023-05-16T08:11:55.837Z,199.00
2023-05-16T08:12:55.872Z,198.02
2023-05-16T08:13:55.938Z,198.17
2023-05-16T08:14:56.004Z,197.79
2023-05-16T08:15:56.019Z,198.91
2023-05-16T08:16:56.102Z,198.23
2023-05-16T08:17:56.129Z,197.28
2023-05-16T08:18:56.181Z,197.44
2023-05-16T08:19:56.161Z,197.46
2023-05-16T08:20:56.208Z,198.88
2023-05-16T08:21:56.217Z,197.74
2023-05-16T08:22:56.275Z,197.57
2023-05-16T08:23:56.307Z,198.40
2023-05-16T08:24:56.322Z,199.19
2023-05-16T08:25:56.378Z,199.62
2023-05-16T08:26:56.390Z,199.79
2023-05-16T08:27:56.410Z,198.17
2023-05-16T08:28:56.470Z,199.73
2023-05-16T08:29:56.463Z,198.43
2023-05-16T08:30:56.543Z,198.83
2023-05-16T08:31:56.516Z,198.86
2023-05-16T08:32:56.591Z,197.47
2023-05-16T08:33:56.551Z,199.84
2023-05-16T08:34:56.548Z,199.10
2023-05-16T08:35:56.564Z,199.36
2023-05-16T08:36:56.578Z,198.04
2023-05-16T08:37:56.616Z,197.62
2023-05-16T08:38:56.648Z,194.16
2023-05-16T08:39:56.628Z,193.97
2023-05-16T08:40:56.674Z,193.75
2023-05-16T08:41:56.688Z,192.50
2023-05-16T08:42:56.708Z,191.97
2023-05-16T08:43:56.762Z,192.06
2023-05-16T08:44:56.792Z,190.26
2023-05-16T08:45:56.831Z,189.37
2023-05-16T08:46:56.849Z,190.81
2023-05-16T08:47:56.967Z,190.91
2023-05-16T08:48:56.910Z,188.55
2023-05-16T08:49:56.931Z,186.42
2023-05-16T08:50:57.015Z,179.96
2023-05-16T08:51:57.021Z,183.79
2023-05-16T08:52:57.084Z,176.84
2023-05-16T08:53:57.157Z,173.60
2023-05-16T08:55:09.407Z,171.11
2023-05-16T08:55:58.231Z,171.13
2023-05-16T08:56:57.209Z,165.48
2023-05-16T08:57:57.215Z,163.68
2023-05-16T08:58:57.213Z,164.52
2023-05-16T08:59:59.192Z,162.33
2023-05-16T09:00:57.200Z,161.40
2023-05-16T09:01:57.156Z,156.21
2023-05-16T09:02:57.182Z,153.42
2023-05-16T09:03:57.267Z,147.55
2023-05-16T09:04:57.158Z,143.54
2023-05-16T09:05:57.180Z,142.23
2023-05-16T09:06:57.119Z,137.67
2023-05-16T09:07:57.106Z,135.64
2023-05-16T09:08:57.095Z,133.64
2023-05-16T09:09:57.108Z,131.41
2023-05-16T09:10:57.092Z,125.73
2023-05-16T09:11:57.108Z,124.15
2023-05-16T09:12:57.083Z,121.19
2023-05-16T09:13:57.089Z,118.89
2023-05-16T09:14:57.078Z,116.55
2023-05-16T09:15:57.086Z,115.72
2023-05-16T09:16:57.094Z,109.04
2023-05-16T09:17:57.140Z,101.56
2023-05-16T09:18:57.170Z,102.91
2023-05-16T09:19:57.105Z,102.73
2023-05-16T09:20:57.123Z,99.47
2023-05-16T09:21:57.116Z,99.79
2023-05-16T09:22:57.142Z,99.95
2023-05-16T09:23:57.146Z,95.95
2023-05-16T09:24:57.302Z,94.44
2023-05-16T09:25:57.206Z,95.35
2023-05-16T09:26:57.217Z,93.19
2023-05-16T09:27:57.218Z,92.45
2023-05-16T09:28:57.228Z,92.95
2023-05-16T09:29:57.227Z,90.37
2023-05-16T09:30:57.252Z,92.11
2023-05-16T09:31:57.233Z,90.11
2023-05-16T09:32:57.353Z,86.19
2023-05-16T09:33:57.279Z,86.98
2023-05-16T09:34:57.249Z,90.90
2023-05-16T09:35:57.299Z,91.06
2023-05-16T09:36:57.321Z,91.39
2023-05-16T09:37:57.290Z,90.46
2023-05-16T09:38:57.287Z,89.76
2023-05-16T09:39:57.334Z,90.36
2023-05-16T09:40:57.296Z,87.86
2023-05-16T09:41:57.304Z,88.91
2023-05-16T09:42:57.330Z,82.63
2023-05-16T09:43:57.334Z,82.87
2023-05-16T09:44:57.348Z,88.74
2023-05-16T09:45:57.384Z,88.81
2023-05-16T09:46:57.394Z,84.46
2023-05-16T09:47:57.396Z,90.09
2023-05-16T09:48:57.341Z,105.76
2023-05-16T09:49:57.362Z,110.24
2023-05-16T09:50:57.368Z,109.49
2023-05-16T09:51:57.403Z,117.50
2023-05-16T09:52:57.575Z,119.61
2023-05-16T09:53:57.519Z,119.42
2023-05-16T09:54:57.600Z,119.63
2023-05-16T09:55:57.664Z,119.72
2023-05-16T09:56:57.699Z,122.66
2023-05-16T09:57:57.815Z,127.46
2023-05-16T09:58:57.793Z,128.99
2023-05-16T09:59:57.851Z,131.95
2023-05-16T10:00:57.896Z,133.63
2023-05-16T10:01:58.022Z,136.59
2023-05-16T10:02:58.105Z,139.36
2023-05-16T10:03:58.093Z,142.11
2023-05-16T10:04:58.029Z,145.00
2023-05-16T10:05:58.049Z,148.63
2023-05-16T10:06:58.163Z,147.71
2023-05-16T10:07:58.093Z,148.83
2023-05-16T10:08:58.147Z,151.39
2023-05-16T10:09:58.125Z,164.12
2023-05-16T10:10:58.171Z,164.09
2023-05-16T10:11:58.175Z,160.93
2023-05-16T10:12:58.224Z,160.33
2023-05-16T10:13:58.223Z,161.29
2023-05-16T10:14:58.233Z,162.33
2023-05-16T10:15:58.346Z,161.37
2023-05-16T10:16:58.299Z,163.75
2023-05-16T10:17:58.297Z,166.70
2023-05-16T10:18:58.386Z,165.54
2023-05-16T10:19:58.312Z,164.28
2023-05-16T10:20:58.339Z,165.86
2023-05-16T10:21:58.353Z,166.89
2023-05-16T10:22:58.338Z,169.62
2023-05-16T10:23:58.317Z,170.20
2023-05-16T10:24:58.394Z,168.55
2023-05-16T10:25:58.409Z,170.93
2023-05-16T10:26:58.353Z,172.07
2023-05-16T10:27:58.383Z,173.95
2023-05-16T10:28:58.370Z,172.91
2023-05-16T10:29:58.361Z,176.28
2023-05-16T10:30:58.388Z,174.39
2023-05-16T10:31:58.435Z,178.63
2023-05-16T10:32:58.403Z,178.78
2023-05-16T10:33:58.371Z,181.12
2023-05-16T10:34:58.377Z,176.89
2023-05-16T10:35:58.430Z,178.05
2023-05-16T10:36:58.373Z,180.79
2023-05-16T10:37:58.385Z,183.42
2023-05-16T10:38:58.386Z,183.53
2023-05-16T10:39:58.383Z,182.12
2023-05-16T10:40:58.473Z,194.62
2023-05-16T10:41:58.432Z,196.82
2023-05-16T10:42:58.429Z,193.87
2023-05-16T10:43:58.424Z,190.85
2023-05-16T10:45:04.812Z,197.01
2023-05-16T10:45:59.501Z,197.12
2023-05-16T10:46:58.452Z,197.52
2023-05-16T10:47:58.518Z,198.07
2023-05-16T10:48:58.868Z,200.83
2023-05-16T10:49:58.396Z,204.71
2023-05-16T10:50:58.396Z,200.36
2023-05-16T10:51:59.135Z,198.50
2023-05-16T10:52:58.376Z,197.28
2023-05-16T10:53:58.429Z,199.62
2023-05-16T10:54:58.474Z,202.17
2023-05-16T10:55:58.553Z,196.67
2023-05-16T10:56:58.590Z,199.53
2023-05-16T10:57:58.651Z,199.39
2023-05-16T10:58:58.700Z,198.52
2023-05-16T10:59:58.746Z,198.64
2023-05-16T11:00:58.818Z,197.14
2023-05-16T11:01:58.957Z,198.65
2023-05-16T11:02:58.993Z,198.23
2023-05-16T11:03:58.993Z,198.21
2023-05-16T11:04:58.957Z,197.56
2023-05-16T11:05:58.982Z,195.18
2023-05-16T11:06:59.053Z,197.67
2023-05-16T11:07:59.082Z,200.00
2023-05-16T11:08:59.134Z,199.76
2023-05-16T11:09:59.130Z,199.38
2023-05-16T11:10:59.186Z,199.97
2023-05-16T11:11:59.218Z,194.99
2023-05-16T11:12:59.258Z,198.86
2023-05-16T11:13:59.252Z,196.72
2023-05-16T11:14:59.298Z,199.71
2023-05-16T11:15:59.302Z,198.20
2023-05-16T11:16:59.394Z,197.64
2023-05-16T11:17:59.352Z,198.15
2023-05-16T11:18:59.448Z,196.90
2023-05-16T11:19:59.772Z,198.47
2023-05-16T11:20:59.438Z,199.02
2023-05-16T11:21:59.447Z,196.47
2023-05-16T11:22:59.621Z,197.87
2023-05-16T11:23:59.480Z,199.04
2023-05-16T11:24:59.515Z,199.48
2023-05-16T11:25:59.546Z,198.90
2023-05-16T11:26:59.543Z,200.00
2023-05-16T11:27:59.548Z,199.28
2023-05-16T11:28:59.581Z,196.60
2023-05-16T11:30:02.604Z,197.83
2023-05-16T11:30:59.665Z,198.48
2023-05-16T11:31:59.713Z,197.58
2023-05-16T11:32:59.655Z,195.35
2023-05-16T11:33:59.556Z,196.72
2023-05-16T11:34:59.543Z,196.19
2023-05-16T11:36:13.951Z,196.51
2023-05-16T11:37:00.568Z,196.59
2023-05-16T11:37:59.545Z,196.94
2023-05-16T11:38:59.522Z,197.03
2023-05-16T11:39:59.666Z,197.49
2023-05-16T11:40:59.524Z,198.26
2023-05-16T11:41:59.543Z,199.24
2023-05-16T11:42:59.521Z,201.39
2023-05-16T11:43:59.497Z,200.67
2023-05-16T11:44:59.685Z,198.60
2023-05-16T11:45:59.502Z,198.69
2023-05-16T11:46:59.537Z,199.40
2023-05-16T11:47:59.538Z,194.26
2023-05-16T11:48:59.556Z,198.93
2023-05-16T11:49:59.579Z,193.85
2023-05-16T11:50:59.694Z,193.74
2023-05-16T11:51:59.742Z,192.21
2023-05-16T11:52:59.789Z,190.94
2023-05-16T11:53:59.848Z,190.32
2023-05-16T11:54:59.903Z,190.41
2023-05-16T11:55:59.956Z,188.09
2023-05-16T11:57:00.020Z,188.92
2023-05-16T11:58:00.071Z,189.83
2023-05-16T11:59:00.098Z,189.33
2023-05-16T12:00:00.128Z,193.96
2023-05-16T12:01:00.240Z,187.78
2023-05-16T12:02:00.172Z,187.19
2023-05-16T12:03:00.273Z,187.95
2023-05-16T12:04:00.239Z,184.98
2023-05-16T12:05:00.251Z,188.26
2023-05-16T12:06:00.158Z,183.15
2023-05-16T12:07:00.156Z,180.49
2023-05-16T12:08:00.186Z,184.05
2023-05-16T12:09:00.172Z,186.52
2023-05-16T12:10:00.172Z,181.75
2023-05-16T12:11:00.153Z,181.43
2023-05-16T12:12:00.190Z,179.66
2023-05-16T12:13:00.132Z,184.16
2023-05-16T12:14:00.178Z,183.54
2023-05-16T12:15:00.168Z,182.27
2023-05-16T12:16:00.161Z,179.68
2023-05-16T12:17:00.370Z,179.95
2023-05-16T12:18:00.202Z,182.30
2023-05-16T12:19:00.204Z,179.90
2023-05-16T12:20:00.218Z,179.15
2023-05-16T12:21:00.185Z,178.36
2023-05-16T12:22:00.201Z,178.67
2023-05-16T12:23:00.222Z,178.96
2023-05-16T12:24:00.229Z,176.09
2023-05-16T12:25:00.209Z,175.28
2023-05-16T12:26:00.169Z,172.70
2023-05-16T12:27:00.198Z,178.88
2023-05-16T12:28:00.194Z,175.79
2023-05-16T12:29:00.205Z,175.73
2023-05-16T12:30:00.219Z,179.15
2023-05-16T12:31:00.211Z,178.83
2023-05-16T12:32:00.258Z,177.62
2023-05-16T12:33:00.396Z,178.80
2023-05-16T12:34:00.221Z,173.46
2023-05-16T12:35:00.221Z,174.37
2023-05-16T12:36:00.258Z,170.96
2023-05-16T12:37:00.263Z,169.42